Time;durP1;ratioP1;P1;durP2;ratioP2;P2;SDS_P1;SDS_P2;PMS_P1;PMS_P2;Temp;Humidity;BMP_temperature;BMP_pressure;BME280_temperature;BME280_humidity;BME280_pressure;Samples;Min_cycle;Max_cycle;Signal;HPM_P1;HPM_P2
2021/03/21 00:01:12;;;;;;;85.47;34.25;;;;;;;-7.47;73.87;98562.97;1777973;79;21090;-72
2021/03/21 00:03:38;;;;;;;78.42;31.95;;;;;;;-7.52;73.93;98565.24;1778044;80;21029;-72
2021/03/21 00:06:04;;;;;;;80.40;31.15;;;;;;;-7.54;73.48;98559.77;1778073;79;21497;-72
2021/03/21 00:08:32;;;;;;;85.25;38.75;;;;;;;-7.58;72.96;98562.38;1778062;80;21267;-72
2021/03/21 00:11:05;;;;;;;96.82;37.98;;;;;;;-7.68;73.32;98556.72;1777891;79;21036;-72
2021/03/21 00:13:31;;;;;;;77.72;33.33;;;;;;;-7.76;75.52;98553.19;1777981;80;21468;-72
2021/03/21 00:15:58;;;;;;;89.92;42.17;;;;;;;-7.78;75.13;98552.48;1778067;79;21043;-72
2021/03/21 00:18:28;;;;;;;80.57;36.93;;;;;;;-7.77;75.90;98547.09;1777893;80;20992;-72
2021/03/21 00:20:54;;;;;;;98.67;38.35;;;;;;;-7.72;74.08;98532.98;1777355;79;21272;-72
2021/03/21 00:23:21;;;;;;;75.40;32.90;;;;;;;-7.76;73.38;98527.69;1777886;80;21047;-72
2021/03/21 00:25:47;;;;;;;99.37;42.70;;;;;;;-7.78;73.77;98526.99;1777962;79;21032;-72
2021/03/21 00:28:15;;;;;;;96.75;38.95;;;;;;;-7.81;73.34;98522.53;1778029;80;21515;-72
2021/03/21 00:30:43;;;;;;;77.97;30.00;;;;;;;-7.89;76.74;98524.59;1778183;79;21495;-72
2021/03/21 00:33:11;;;;;;;102.72;44.63;;;;;;;-7.81;75.89;98518.59;1777937;80;21479;-72
2021/03/21 00:35:38;;;;;;;101.67;40.43;;;;;;;-7.83;76.36;98522.69;1778025;79;21040;-72
2021/03/21 00:38:07;;;;;;;53.80;22.15;;;;;;;-7.83;76.63;98524.01;1778241;80;21519;-72
2021/03/21 00:40:34;;;;;;;79.27;34.00;;;;;;;-7.78;74.41;98515.15;1785148;79;21019;-72
2021/03/21 00:43:00;;;;;;;94.60;40.25;;;;;;;-7.79;74.03;98515.30;1785251;80;21130;-72
2021/03/21 00:45:27;;;;;;;87.50;37.53;;;;;;;-7.87;76.24;98509.97;1785203;79;21459;-72
2021/03/21 00:47:53;;;;;;;94.22;39.05;;;;;;;-7.87;75.37;98500.77;1785117;80;21079;-72
2021/03/21 00:50:24;;;;;;;83.62;38.40;;;;;;;-7.90;75.90;98503.22;1785098;79;21134;-72
2021/03/21 00:52:50;;;;;;;88.58;39.55;;;;;;;-7.85;77.04;98500.97;1785234;80;21502;-73
2021/03/21 00:55:17;;;;;;;96.17;37.85;;;;;;;-7.82;76.95;98490.63;1785201;79;21011;-73
2021/03/21 00:57:43;;;;;;;80.10;37.33;;;;;;;-7.78;76.07;98486.70;1785083;80;21252;-73
2021/03/21 01:00:26;;;;;;;83.75;36.53;;;;;;;-7.82;75.68;98480.92;1785083;79;21122;-73
2021/03/21 01:02:52;;;;;;;99.37;40.63;;;;;;;-7.85;75.08;98491.77;1785212;80;21091;-72
2021/03/21 01:05:28;;;;;;;85.70;37.67;;;;;;;-7.89;75.45;98489.58;1785085;79;21603;-72
2021/03/21 01:07:55;;;;;;;92.37;39.58;;;;;;;-8.05;76.00;98487.13;1785165;80;21047;-73
2021/03/21 01:10:28;;;;;;;83.37;37.23;;;;;;;-8.13;76.23;98483.11;1756615;80;21206;-73
2021/03/21 01:12:55;;;;;;;79.40;33.63;;;;;;;-8.09;75.89;98484.48;1785001;80;21495;-73
2021/03/21 01:15:22;;;;;;;73.20;31.20;;;;;;;-8.02;74.43;98472.88;1785167;79;21109;-73
2021/03/21 01:17:49;;;;;;;77.85;34.23;;;;;;;-8.14;73.60;98468.80;1785087;80;21511;-73
2021/03/21 01:20:16;;;;;;;72.03;28.92;;;;;;;-8.32;77.12;98467.48;1785188;79;21408;-73
2021/03/21 01:22:42;;;;;;;76.22;29.10;;;;;;;-8.25;75.79;98460.16;1785215;80;21188;-73
2021/03/21 01:25:10;;;;;;;85.97;31.30;;;;;;;-8.30;77.11;98460.27;1785107;79;21514;-73
2021/03/21 01:27:36;;;;;;;82.80;34.48;;;;;;;-8.28;77.61;98453.91;1785107;80;21055;-73
2021/03/21 01:30:04;;;;;;;78.05;33.78;;;;;;;-8.24;77.56;98451.30;1785071;79;21495;-73
2021/03/21 01:32:30;;;;;;;100.82;41.83;;;;;;;-8.26;76.49;98449.80;1785255;80;21110;-73
2021/03/21 01:34:56;;;;;;;85.22;39.08;;;;;;;-8.26;76.97;98445.37;1785174;79;21253;-73
2021/03/21 01:37:22;;;;;;;80.53;33.83;;;;;;;-8.25;76.17;98439.13;1785049;80;21106;-73
2021/03/21 01:39:48;;;;;;;80.77;31.80;;;;;;;-8.21;74.62;98440.13;1782259;79;21150;-73
2021/03/21 01:42:15;;;;;;;62.33;26.27;;;;;;;-8.29;73.83;98434.31;1780706;80;21124;-73
2021/03/21 01:44:43;;;;;;;59.55;22.93;;;;;;;-8.39;73.79;98429.16;1780898;79;21487;-73
2021/03/21 01:47:21;;;;;;;53.42;27.30;;;;;;;-8.39;74.01;98431.79;1756862;80;21204;-73
2021/03/21 01:49:48;;;;;;;79.03;36.88;;;;;;;-8.29;75.32;98430.36;1779423;79;21027;-72
2021/03/21 01:52:36;;;;;;;74.77;30.35;;;;;;;-8.16;76.60;98432.63;1780818;80;21055;-72
2021/03/21 01:55:07;;;;;;;46.58;21.97;;;;;;;-8.10;75.43;98423.66;1776725;79;21515;-73
2021/03/21 01:57:33;;;;;;;69.75;24.00;;;;;;;-8.20;73.94;98425.55;1780961;80;21468;-73
2021/03/21 01:59:59;;;;;;;47.30;22.87;;;;;;;-8.33;73.80;98421.14;1780787;79;21126;-73
2021/03/21 02:02:25;;;;;;;73.05;29.30;;;;;;;-8.46;74.45;98418.90;1780835;80;21571;-73
2021/03/21 02:04:51;;;;;;;97.88;38.45;;;;;;;-8.50;74.31;98417.56;1780776;79;21126;-73
2021/03/21 02:07:35;;;;;;;78.90;34.13;;;;;;;-8.57;76.45;98413.88;1780909;80;21558;-73
2021/03/21 02:10:19;;;;;;;82.85;37.17;;;;;;;-8.53;77.19;98415.24;1779613;79;21067;-72
2021/03/21 02:13:02;;;;;;;73.15;27.98;;;;;;;-8.46;77.40;98412.33;1775402;80;21463;-72
2021/03/21 02:15:43;;;;;;;79.72;32.33;;;;;;;-8.41;76.13;98402.69;1780821;79;21015;-72
2021/03/21 02:18:31;;;;;;;74.25;32.85;;;;;;;-8.43;76.32;98402.02;1775376;80;21118;-72
2021/03/21 02:21:24;;;;;;;96.55;37.08;;;;;;;-8.44;76.54;98393.31;1778698;79;21027;-72
2021/03/21 02:24:14;;;;;;;71.07;32.13;;;;;;;-8.43;77.13;98385.77;1780896;80;21471;-72
2021/03/21 02:26:51;;;;;;;74.82;31.97;;;;;;;-8.39;77.22;98378.39;1762365;81;21999;-72
2021/03/21 02:29:49;;;;;;;70.00;31.73;;;;;;;-8.42;76.24;98380.84;1762173;80;21049;-72
2021/03/21 02:32:27;;;;;;;76.82;29.57;;;;;;;-8.55;76.52;98372.49;1762431;81;21111;-72
2021/03/21 02:35:11;;;;;;;86.67;35.23;;;;;;;-8.66;76.54;98369.61;1761784;80;21041;-72
2021/03/21 02:38:09;;;;;;;64.17;27.77;;;;;;;-8.74;76.22;98364.27;1761968;81;21116;-72
2021/03/21 02:40:48;;;;;;;81.97;31.73;;;;;;;-8.85;76.15;98358.75;1766458;79;21272;-72
2021/03/21 02:43:22;;;;;;;63.05;29.23;;;;;;;-8.91;76.87;98356.72;1767366;81;21511;-72
2021/03/21 02:45:51;;;;;;;83.27;34.35;;;;;;;-8.93;77.11;98357.36;1740920;81;21163;-72
2021/03/21 02:48:31;;;;;;;72.53;30.30;;;;;;;-8.91;76.35;98357.20;1767339;81;21100;-73
2021/03/21 02:51:04;;;;;;;49.98;20.70;;;;;;;-8.95;77.31;98351.92;1767367;79;21036;-72
2021/03/21 02:53:46;;;;;;;77.70;30.85;;;;;;;-8.83;76.01;98355.97;1742002;81;21941;-72
2021/03/21 02:56:16;;;;;;;60.98;25.17;;;;;;;-8.86;75.79;98347.09;1767302;79;21103;-72
2021/03/21 02:58:45;;;;;;;82.40;36.25;;;;;;;-8.85;75.09;98343.00;1767375;81;21092;-73
2021/03/21 03:01:24;;;;;;;73.07;31.45;;;;;;;-8.92;76.97;98328.80;1767518;79;21095;-73
2021/03/21 03:03:53;;;;;;;68.42;24.30;;;;;;;-8.85;76.11;98325.92;1767189;81;21104;-72
2021/03/21 03:06:27;;;;;;;90.28;33.83;;;;;;;-8.88;76.55;98319.66;1767331;79;21321;-73
2021/03/21 03:08:57;;;;;;;72.37;30.40;;;;;;;-8.97;77.08;98321.02;1766996;81;21100;-73
2021/03/21 03:11:27;;;;;;;60.83;24.50;;;;;;;-8.91;77.38;98312.06;1767428;79;21489;-73
2021/03/21 03:14:00;;;;;;;76.17;33.10;;;;;;;-8.86;76.54;98315.57;1741319;81;21116;-73
2021/03/21 03:16:34;;;;;;;67.90;26.75;;;;;;;-8.86;76.91;98307.69;1767437;81;21116;-73
2021/03/21 03:19:24;;;;;;;70.17;29.95;;;;;;;-8.86;76.58;98305.89;1767122;79;21520;-73
2021/03/21 03:22:08;;;;;;;76.80;29.70;;;;;;;-8.85;76.27;98306.71;1766879;81;21564;-73
2021/03/21 03:25:01;;;;;;;62.40;27.65;;;;;;;-8.93;76.04;98299.58;1767163;79;21045;-74
2021/03/21 03:27:46;;;;;;;67.08;31.73;;;;;;;-8.96;75.47;98292.50;1767434;81;21088;-72
2021/03/21 03:30:18;;;;;;;66.57;28.75;;;;;;;-9.04;76.52;98292.42;1767321;79;21092;-72
2021/03/21 03:32:44;;;;;;;60.75;23.98;;;;;;;-9.00;76.01;98287.19;1767299;81;21203;-73
2021/03/21 03:35:13;;;;;;;69.80;28.10;;;;;;;-9.00;75.14;98284.08;1767184;79;21084;-73
2021/03/21 03:37:39;;;;;;;68.17;32.45;;;;;;;-9.12;76.22;98272.98;1767423;81;21140;-73
2021/03/21 03:40:07;;;;;;;63.70;27.40;;;;;;;-9.18;76.92;98272.74;1759781;79;21422;-73
2021/03/21 03:43:24;;;;;;;76.85;28.73;;;;;;;-9.14;76.31;98264.92;1750730;82;21120;-72
2021/03/21 03:46:10;;;;;;;71.20;31.62;;;;;;;-9.15;76.31;98254.87;1750649;80;21209;-73
2021/03/21 03:48:45;;;;;;;67.55;24.55;;;;;;;-9.27;76.98;98263.95;1750671;81;21117;-73
2021/03/21 03:51:22;;;;;;;57.53;25.50;;;;;;;-9.25;76.26;98254.13;1750522;80;21100;-72
2021/03/21 03:54:17;;;;;;;62.58;28.65;;;;;;;-9.30;74.94;98239.33;1717576;82;21132;-72
2021/03/21 03:56:51;;;;;;;56.00;24.87;;;;;;;-9.43;76.35;98237.05;1750708;81;21069;-73
2021/03/21 03:59:29;;;;;;;66.77;28.55;;;;;;;-9.45;76.64;98227.69;1750639;80;21265;-73
2021/03/21 04:02:13;;;;;;;74.10;31.17;;;;;;;-9.42;76.78;98228.69;1750679;82;21085;-73
2021/03/21 04:05:02;;;;;;;79.32;31.07;;;;;;;-9.42;76.38;98230.83;1750654;80;21049;-72
2021/03/21 04:07:52;;;;;;;70.37;29.87;;;;;;;-9.53;76.54;98228.42;1750722;82;21136;-72
2021/03/21 04:10:22;;;;;;;63.68;22.62;;;;;;;-9.54;76.66;98225.95;1750760;80;21116;-73
2021/03/21 04:13:06;;;;;;;56.18;24.60;;;;;;;-9.49;75.68;98223.20;1750530;82;21275;-72
2021/03/21 04:15:36;;;;;;;54.18;23.70;;;;;;;-9.50;75.18;98223.36;1750561;80;21096;-72
2021/03/21 04:18:17;;;;;;;67.87;29.37;;;;;;;-9.60;75.47;98218.17;1750653;82;21108;-73
2021/03/21 04:20:47;;;;;;;65.37;28.12;;;;;;;-9.61;76.54;98216.53;1750568;80;21087;-72
2021/03/21 04:23:24;;;;;;;71.42;26.80;;;;;;;-9.59;77.03;98209.81;1750770;81;21077;-73
2021/03/21 04:25:57;;;;;;;71.87;28.30;;;;;;;-9.59;76.30;98200.15;1750648;80;22048;-72
2021/03/21 04:28:32;;;;;;;54.40;21.77;;;;;;;-9.65;76.13;98196.83;1750662;82;21085;-72
2021/03/21 04:30:58;;;;;;;55.90;23.00;;;;;;;-9.61;75.06;98182.42;1750469;80;21046;-72
2021/03/21 04:33:27;;;;;;;;;;;;;;;-9.71;74.72;98182.49;1753263;81;21101;-73
2021/03/21 04:35:55;;;;;;;;;;;;;;;-9.91;76.23;98180.11;1753258;80;20228;-72
2021/03/21 04:38:42;;;;;;;54.98;22.25;;;;;;;-9.95;76.56;98187.47;1750735;82;21252;-72
2021/03/21 04:41:10;;;;;;;57.93;24.12;;;;;;;-9.89;76.60;98192.13;1762396;80;21164;-73
2021/03/21 04:43:53;;;;;;;82.37;32.83;;;;;;;-9.87;76.79;98185.42;1767470;81;21493;-72
2021/03/21 04:46:43;;;;;;;121.05;48.78;;;;;;;-9.85;77.09;98182.16;1767305;79;21100;-72
2021/03/21 04:49:09;;;;;;;96.47;37.63;;;;;;;-9.81;76.24;98185.67;1766721;79;21516;-72
2021/03/21 04:51:43;;;;;;;56.95;22.45;;;;;;;-9.79;76.53;98186.83;1767238;81;21127;-72
2021/03/21 04:54:25;;;;;;;66.60;29.23;;;;;;;-9.73;75.26;98187.07;1767189;79;21120;-72
2021/03/21 04:57:23;;;;;;;64.62;25.65;;;;;;;-9.81;75.59;98180.91;1767245;81;21080;-72
2021/03/21 04:59:51;;;;;;;82.92;31.42;;;;;;;-9.81;76.55;98183.05;1767450;79;21500;-72
2021/03/21 05:02:28;;;;;;;68.83;28.70;;;;;;;-9.76;76.41;98171.61;1767524;81;21092;-72
2021/03/21 05:05:15;;;;;;;74.67;27.60;;;;;;;-9.70;75.91;98157.91;1767214;79;21197;-72
2021/03/21 05:07:55;;;;;;;111.60;39.15;;;;;;;-9.62;76.08;98159.80;1767100;81;21127;-72
2021/03/21 05:10:34;;;;;;;91.08;32.35;;;;;;;-9.57;75.99;98158.87;1767278;79;21116;-72
2021/03/21 05:13:06;;;;;;;88.67;35.10;;;;;;;-9.58;75.62;98161.12;1766876;81;21178;-72
2021/03/21 05:15:46;;;;;;;57.53;25.23;;;;;;;-9.69;75.53;98149.55;1767347;79;21084;-73
2021/03/21 05:18:51;;;;;;;63.30;26.90;;;;;;;-9.60;75.64;98146.03;1767411;81;21212;-72
2021/03/21 05:21:38;;;;;;;83.72;33.65;;;;;;;-9.48;75.66;98145.34;1767379;79;21055;-72
2021/03/21 05:24:19;;;;;;;88.45;33.05;;;;;;;-9.39;76.03;98143.13;1767329;79;21084;-72
2021/03/21 05:26:52;;;;;;;73.52;35.45;;;;;;;-9.32;75.83;98144.63;1767416;81;21500;-71
2021/03/21 05:29:47;;;;;;;91.97;39.40;;;;;;;-9.25;75.97;98138.63;1767355;79;21143;-72
2021/03/21 05:32:16;;;;;;;74.00;29.37;;;;;;;-9.09;76.09;98131.38;1767559;81;22224;-72
2021/03/21 05:34:42;;;;;;;;;;;;;;;-8.95;75.49;98128.69;1769966;79;21095;-73
2021/03/21 05:37:19;;;;;;;69.03;27.35;;;;;;;-8.94;75.27;98121.97;1767383;81;20594;-73
2021/03/21 05:40:23;;;;;;;91.92;39.78;;;;;;;-8.80;74.87;98117.96;1764923;79;21032;-72
2021/03/21 05:43:14;;;;;;;67.50;29.65;;;;;;;-8.78;75.28;98113.86;1750796;81;21125;-72
2021/03/21 05:46:06;;;;;;;105.78;43.48;;;;;;;-8.56;74.69;98107.56;1750666;80;22140;-73
2021/03/21 05:49:00;;;;;;;94.15;39.13;;;;;;;-8.47;75.01;98111.55;1743581;82;21132;-72
2021/03/21 05:51:38;;;;;;;81.10;33.65;;;;;;;-8.41;74.76;98100.41;1750720;82;21043;-72
2021/03/21 05:54:22;;;;;;;99.42;40.03;;;;;;;-8.21;74.44;98103.07;1750048;80;21101;-72
2021/03/21 05:57:25;;;;;;;85.45;34.95;;;;;;;-8.12;75.04;98090.77;1750741;81;21128;-72
2021/03/21 06:00:25;;;;;;;85.32;35.90;;;;;;;-7.91;75.02;98081.14;1750717;80;21265;-73
2021/03/21 06:03:25;;;;;;;88.65;38.92;;;;;;;-7.69;74.57;98081.36;1750657;82;21132;-72
2021/03/21 06:06:03;;;;;;;99.92;44.58;;;;;;;-7.49;74.33;98081.03;1750653;80;21093;-72
2021/03/21 06:08:58;;;;;;;86.10;39.40;;;;;;;-7.00;73.09;98076.56;1751001;81;21505;-72
2021/03/21 06:11:52;;;;;;;99.58;45.73;;;;;;;-6.56;73.06;98075.63;1750749;80;21522;-72
2021/03/21 06:15:04;;;;;;;73.47;32.25;;;;;;;-6.48;70.79;98063.42;1750707;80;21486;-72
2021/03/21 06:18:00;;;;;;;134.72;56.55;;;;;;;-6.14;72.87;98056.51;1750693;82;21148;-72
2021/03/21 06:20:37;;;;;;;67.60;33.53;;;;;;;-6.11;70.59;98046.92;1715018;82;21205;-72
2021/03/21 06:23:32;;;;;;;66.02;35.78;;;;;;;-5.87;71.62;98049.89;1747820;82;21491;-72
2021/03/21 06:26:20;;;;;;;66.47;30.82;;;;;;;-5.89;70.28;98047.42;1770783;80;21157;-72
2021/03/21 06:29:18;;;;;;;72.90;31.95;;;;;;;-5.65;69.98;98038.49;1785469;80;21463;-72
2021/03/21 06:32:01;;;;;;;74.60;32.00;;;;;;;-5.74;68.96;98023.71;1785419;80;21039;-72
2021/03/21 06:35:04;;;;;;;77.50;34.92;;;;;;;-5.35;70.29;98032.00;1767862;79;21043;-72
2021/03/21 06:37:55;;;;;;;82.37;41.13;;;;;;;-5.16;69.97;98019.09;1785178;80;21135;-72
2021/03/21 06:40:42;;;;;;;79.20;34.23;;;;;;;-5.11;70.19;98011.47;1785138;79;21078;-73
2021/03/21 06:43:55;;;;;;;74.40;33.08;;;;;;;-4.82;69.97;97999.27;1847315;76;22316;-71
2021/03/21 06:46:48;;;;;;;74.30;32.15;;;;;;;-4.50;67.48;97993.27;1786514;79;21460;-72
2021/03/21 06:49:59;;;;;;;77.40;36.65;;;;;;;-3.95;69.18;97985.23;1785335;79;21195;-72
2021/03/21 06:52:37;;;;;;;67.12;29.52;;;;;;;-3.95;66.70;97971.49;1785915;79;20900;-72
2021/03/21 06:55:21;;;;;;;47.38;24.23;;;;;;;-3.26;67.87;97969.03;1785831;79;20980;-73
2021/03/21 06:58:28;;;;;;;64.70;31.40;;;;;;;-2.97;60.88;97966.69;1785989;80;21423;-72
2021/03/21 07:01:20;;;;;;;75.70;42.95;;;;;;;-2.71;62.91;97949.29;1785826;79;20956;-72
2021/03/21 07:04:27;;;;;;;35.98;17.95;;;;;;;-2.15;64.40;97951.22;1786002;80;21106;-73
2021/03/21 07:07:34;;;;;;;46.68;20.95;;;;;;;-1.70;64.61;97940.91;1785776;80;20964;-72
2021/03/21 07:10:36;;;;;;;41.75;21.50;;;;;;;-1.62;62.73;97939.86;1783783;79;21035;-72
2021/03/21 07:13:16;;;;;;;33.53;16.82;;;;;;;-1.71;60.20;97942.74;1784447;80;21098;-72
2021/03/21 07:16:01;;;;;;;28.60;15.23;;;;;;;-1.59;56.50;97940.28;1784877;79;21079;-73
2021/03/21 07:18:58;;;;;;;33.48;16.00;;;;;;;-1.25;60.82;97931.79;1785725;80;21310;-72
2021/03/21 07:21:50;;;;;;;39.85;17.20;;;;;;;-1.13;55.47;97928.80;1756088;80;21043;-72
2021/03/21 07:24:55;;;;;;;26.35;11.97;;;;;;;-1.14;54.78;97917.86;1785859;79;21075;-72
2021/03/21 07:28:07;;;;;;;11.33;6.40;;;;;;;-0.88;58.41;97918.30;1785909;80;21031;-72
2021/03/21 07:30:53;;;;;;;14.47;5.47;;;;;;;-0.77;55.36;97907.04;1785947;79;21083;-72
2021/03/21 07:33:34;;;;;;;7.97;4.78;;;;;;;-0.73;52.71;97902.91;1785145;80;21197;-72
2021/03/21 07:36:32;;;;;;;10.05;4.37;;;;;;;-0.61;53.65;97905.21;1785901;79;21480;-72
2021/03/21 07:39:13;;;;;;;8.13;5.15;;;;;;;-0.53;54.19;97895.36;1785836;80;21070;-72
2021/03/21 07:42:05;;;;;;;6.72;4.30;;;;;;;-0.42;54.17;97903.52;1785285;78;21503;-72
2021/03/21 07:44:49;;;;;;;7.50;2.08;;;;;;;-0.28;53.96;97901.58;1785485;79;21076;-72
2021/03/21 07:47:33;;;;;;;5.92;3.25;;;;;;;-0.24;51.03;97899.33;1785934;80;21197;-73
2021/03/21 07:50:39;;;;;;;7.70;3.92;;;;;;;-0.26;50.45;97895.52;1785759;79;21164;-71
2021/03/21 07:53:32;;;;;;;27.25;5.33;;;;;;;-0.26;50.68;97906.17;1785610;80;21035;-72
2021/03/21 07:56:30;;;;;;;8.90;3.83;;;;;;;-0.25;47.77;97898.52;1785291;79;21020;-72
2021/03/21 07:59:02;;;;;;;6.85;3.17;;;;;;;-0.23;48.92;97880.47;1785391;80;21063;-72
2021/03/21 08:01:28;;;;;;;5.72;3.17;;;;;;;-0.18;50.67;97883.80;1785294;80;21057;-72
2021/03/21 08:04:07;;;;;;;6.97;3.75;;;;;;;-0.17;48.04;97867.63;1785183;80;21559;-73
2021/03/21 08:06:42;;;;;;;7.10;3.50;;;;;;;-0.17;48.86;97869.45;1785461;80;21365;-73
2021/03/21 08:09:20;;;;;;;10.65;6.85;;;;;;;-0.13;47.16;97866.16;1785337;79;21095;-71
2021/03/21 08:12:13;;;;;;;7.72;3.85;;;;;;;-0.09;49.14;97863.35;1785623;80;21415;-73
2021/03/21 08:14:52;;;;;;;5.35;2.98;;;;;;;-0.05;47.65;97859.24;1785275;79;21195;-71
2021/03/21 08:17:26;;;;;;;8.58;4.62;;;;;;;-0.01;47.57;97852.95;1784929;80;21511;-71
2021/03/21 08:19:58;;;;;;;7.62;4.00;;;;;;;0.12;47.21;97855.53;1785240;79;21090;-72
2021/03/21 08:22:27;;;;;;;5.95;3.40;;;;;;;0.03;45.92;97850.17;1785215;80;21020;-72
2021/03/21 08:24:55;;;;;;;6.80;4.12;;;;;;;0.05;44.89;97859.27;1785396;79;21468;-72
2021/03/21 08:27:28;;;;;;;7.47;3.00;;;;;;;0.08;46.93;97846.84;1785484;80;21090;-72
2021/03/21 08:30:06;;;;;;;5.42;3.67;;;;;;;0.16;46.38;97842.58;1784714;79;21039;-71
2021/03/21 08:32:34;;;;;;;7.45;4.83;;;;;;;0.28;44.00;97835.01;1785223;80;21090;-72
2021/03/21 08:35:20;;;;;;;7.90;4.80;;;;;;;0.10;45.63;97817.64;1785459;79;21769;-72
2021/03/21 08:37:48;;;;;;;7.95;4.22;;;;;;;0.33;44.88;97823.67;1784318;80;21472;-72
2021/03/21 08:40:29;;;;;;;10.57;4.40;;;;;;;0.27;45.86;97820.57;1785586;79;22039;-72
2021/03/21 08:43:24;;;;;;;6.12;3.47;;;;;;;0.21;46.72;97812.11;1791976;78;22108;-71
2021/03/21 08:46:16;;;;;;;5.10;1.98;;;;;;;0.26;45.28;97810.42;1797214;78;21142;-71
2021/03/21 08:48:42;;;;;;;4.70;2.05;;;;;;;0.49;46.95;97800.97;1797224;79;21101;-73
2021/03/21 08:51:17;;;;;;;7.30;3.50;;;;;;;0.49;45.10;97804.45;1797329;78;21003;-73
2021/03/21 08:54:15;;;;;;;7.25;4.20;;;;;;;0.38;44.79;97795.85;1797237;79;21430;-71
2021/03/21 08:57:02;;;;;;;7.87;3.13;;;;;;;0.44;45.79;97798.98;1797384;79;21106;-71
2021/03/21 08:59:39;;;;;;;7.37;3.55;;;;;;;0.42;45.68;97802.36;1797247;78;21035;-72
2021/03/21 09:02:14;;;;;;;8.23;3.72;;;;;;;0.46;45.04;97807.57;1797192;79;21023;-72
2021/03/21 09:05:01;;;;;;;8.55;4.22;;;;;;;0.43;46.25;97805.35;1797176;78;21121;-71
2021/03/21 09:07:36;;;;;;;10.70;4.80;;;;;;;0.44;45.36;97804.31;1796959;79;22358;-71
2021/03/21 09:10:14;;;;;;;7.65;3.92;;;;;;;0.50;44.24;97811.41;1796225;78;20986;-72
2021/03/21 09:12:43;;;;;;;19.98;8.88;;;;;;;0.44;44.88;97785.66;1797292;79;21519;-71
2021/03/21 09:15:18;;;;;;;21.40;11.22;;;;;;;0.60;45.46;97784.27;1796930;78;21133;-72
2021/03/21 09:18:00;;;;;;;23.00;12.45;;;;;;;0.70;45.40;97797.89;1793642;79;21019;-71
2021/03/21 09:20:26;;;;;;;6.87;3.60;;;;;;;0.75;45.63;97781.20;1796032;78;21191;-72
2021/03/21 09:22:53;;;;;;;6.70;3.10;;;;;;;0.71;44.00;97783.52;1797092;79;21113;-71
2021/03/21 09:25:25;;;;;;;10.45;5.70;;;;;;;0.81;45.20;97780.33;1771089;79;21148;-71
2021/03/21 09:27:51;;;;;;;7.30;4.55;;;;;;;0.82;45.08;97778.77;1797198;79;20916;-72
2021/03/21 09:30:37;;;;;;;11.70;6.78;;;;;;;1.00;45.95;97780.60;1797295;78;21404;-72
2021/03/21 09:33:11;;;;;;;10.55;5.47;;;;;;;1.18;45.72;97780.28;1796042;79;22188;-72
2021/03/21 09:35:58;;;;;;;10.08;6.35;;;;;;;1.16;45.68;97787.18;1797143;78;21039;-72
2021/03/21 09:38:28;;;;;;;12.68;6.08;;;;;;;1.14;45.05;97777.26;1757918;79;21054;-72
2021/03/21 09:41:02;;;;;;;9.75;3.62;;;;;;;1.16;45.17;97771.17;1796578;78;21050;-72
2021/03/21 09:43:35;;;;;;;12.73;4.83;;;;;;;1.28;45.21;97769.88;1788852;79;21018;-72
2021/03/21 09:46:26;;;;;;;13.70;9.10;;;;;;;1.30;44.48;97766.48;1755446;80;21256;-72
2021/03/21 09:49:23;;;;;;;8.60;4.65;;;;;;;1.21;45.44;97779.33;1785096;80;21464;-72
2021/03/21 09:52:03;;;;;;;24.67;10.60;;;;;;;1.28;45.57;97776.05;1785265;80;21798;-72
2021/03/21 09:54:49;;;;;;;45.85;17.75;;;;;;;1.50;45.66;97779.02;1782891;79;21043;-72
2021/03/21 09:57:37;;;;;;;10.18;4.55;;;;;;;1.63;45.33;97775.36;1784675;80;21015;-71
2021/03/21 10:00:34;;;;;;;11.63;6.67;;;;;;;1.80;45.77;97777.67;1785168;79;21190;-72
2021/03/21 10:03:04;;;;;;;59.10;25.27;;;;;;;2.05;45.81;97766.78;1747462;80;21162;-71
2021/03/21 10:06:08;;;;;;;34.58;12.35;;;;;;;2.44;45.80;97767.94;1785158;79;21527;-72
2021/03/21 10:09:03;;;;;;;23.92;9.85;;;;;;;2.79;44.16;97757.19;1785159;80;21528;-71
2021/03/21 10:11:33;;;;;;;33.45;15.25;;;;;;;2.88;43.50;97752.28;1784374;80;21479;-71
2021/03/21 10:14:00;;;;;;;29.27;13.78;;;;;;;2.80;44.20;97745.95;1785139;80;21188;-72
2021/03/21 10:16:30;;;;;;;18.73;10.60;;;;;;;3.00;44.89;97741.56;1785174;80;21078;-72
2021/03/21 10:19:07;;;;;;;14.87;6.17;;;;;;;3.07;43.24;97740.88;1785253;80;21421;-72
2021/03/21 10:21:39;;;;;;;17.27;6.78;;;;;;;3.18;44.53;97746.73;1784676;80;21547;-72
2021/03/21 10:24:26;;;;;;;22.20;9.15;;;;;;;3.27;43.04;97737.27;1785189;79;20897;-72
2021/03/21 10:27:17;;;;;;;37.53;13.98;;;;;;;2.90;44.36;97735.98;1785160;80;21457;-73
2021/03/21 10:30:05;;;;;;;12.70;6.00;;;;;;;2.78;44.82;97742.71;1785146;79;21499;-71
2021/03/21 10:32:34;;;;;;;24.35;10.43;;;;;;;2.75;44.88;97735.17;1785174;80;21051;-72
2021/03/21 10:35:00;;;;;;;17.77;9.23;;;;;;;2.78;45.65;97739.51;1785215;79;21130;-72
2021/03/21 10:37:44;;;;;;;10.32;6.10;;;;;;;2.81;45.37;97738.22;1754617;80;21555;-72
2021/03/21 10:40:26;;;;;;;13.32;7.12;;;;;;;2.86;45.48;97730.30;1785245;79;22105;-71
2021/03/21 10:42:57;;;;;;;11.97;7.15;;;;;;;2.69;45.61;97727.55;1789249;79;21129;-72
2021/03/21 10:45:42;;;;;;;8.15;4.70;;;;;;;2.58;46.17;97723.05;1799769;78;21487;-71
2021/03/21 10:48:21;;;;;;;12.55;4.67;;;;;;;2.49;45.90;97716.44;1799757;79;21146;-72
2021/03/21 10:51:06;;;;;;;12.45;7.08;;;;;;;2.43;46.84;97713.35;1778816;79;21399;-72
2021/03/21 10:53:54;;;;;;;119.62;55.48;;;;;;;2.48;46.82;97715.63;1780715;80;21185;-72
2021/03/21 10:56:22;;;;;;;21.82;8.05;;;;;;;2.31;47.40;97713.38;1779491;80;21094;-71
2021/03/21 10:59:25;;;;;;;9.45;6.45;;;;;;;2.30;47.13;97710.91;1780810;80;21412;-72
2021/03/21 11:02:18;;;;;;;15.55;6.72;;;;;;;2.16;48.40;97703.67;1762118;81;21235;-72
2021/03/21 11:04:46;;;;;;;10.10;5.67;;;;;;;2.24;48.22;97701.98;1748691;82;21511;-71
2021/03/21 11:07:18;;;;;;;25.12;11.63;;;;;;;2.11;48.78;97715.58;1732532;80;22099;-72
2021/03/21 11:09:59;;;;;;;24.57;9.20;;;;;;;2.08;49.45;97709.37;1780755;79;21476;-72
2021/03/21 11:12:38;;;;;;;16.95;6.75;;;;;;;2.07;49.86;97709.89;1780713;80;21075;-71
2021/03/21 11:15:21;;;;;;;13.08;4.53;;;;;;;1.95;50.99;97707.20;1778936;79;21091;-72
2021/03/21 11:17:47;;;;;;;19.02;9.05;;;;;;;1.88;52.05;97706.52;1757680;81;21419;-72
2021/03/21 11:20:30;;;;;;;209.57;84.30;;;;;;;1.63;53.04;97702.72;1749796;81;21279;-73
2021/03/21 11:22:56;;;;;;;20.77;8.55;;;;;;;1.62;54.00;97702.43;1749771;82;21433;-71
2021/03/21 11:25:35;;;;;;;47.58;19.10;;;;;;;1.64;54.91;97707.53;1780767;79;21102;-71
2021/03/21 11:28:04;;;;;;;23.80;14.38;;;;;;;1.55;55.35;97698.23;1780312;80;21138;-72
2021/03/21 11:30:30;;;;;;;303.98;131.22;;;;;;;1.42;57.21;97699.23;1780974;79;21095;-73
2021/03/21 11:33:00;;;;;;;185.30;76.12;;;;;;;1.36;57.26;97699.62;1780905;80;21319;-72
2021/03/21 11:35:29;;;;;;;18.45;7.97;;;;;;;1.28;57.75;97693.30;1777137;79;21043;-72
2021/03/21 11:37:58;;;;;;;36.95;15.38;;;;;;;1.36;57.82;97688.12;1780795;80;21043;-72
2021/03/21 11:40:30;;;;;;;52.62;25.08;;;;;;;1.13;57.85;97681.70;1780821;79;21107;-72
2021/03/21 11:43:23;;;;;;;82.82;27.93;;;;;;;1.06;60.35;97684.98;1780737;80;21126;-72
2021/03/21 11:45:50;;;;;;;141.73;52.75;;;;;;;1.15;58.80;97698.81;1780853;79;21436;-71
2021/03/21 11:48:34;;;;;;;118.60;44.83;;;;;;;1.08;60.55;97687.41;1780737;80;21048;-71
2021/03/21 11:51:01;;;;;;;113.77;39.70;;;;;;;1.15;60.22;97694.00;1780807;79;21127;-72
2021/03/21 11:53:32;;;;;;;12.28;6.72;;;;;;;1.03;60.89;97687.30;1780793;80;21024;-72
2021/03/21 11:56:30;;;;;;;89.00;31.87;;;;;;;1.00;61.39;97682.39;1780943;79;21032;-72
2021/03/21 11:59:04;;;;;;;51.33;27.77;;;;;;;0.94;61.59;97681.95;1780972;80;21260;-71
2021/03/21 12:01:48;;;;;;;34.15;12.05;;;;;;;0.95;61.77;97678.27;1780904;80;21500;-72
2021/03/21 12:04:34;;;;;;;54.77;24.77;;;;;;;1.18;61.32;97662.84;1780782;79;21055;-71
2021/03/21 12:07:14;;;;;;;25.43;13.90;;;;;;;1.32;61.05;97660.27;1868713;76;27602;-71
2021/03/21 12:09:48;;;;;;;23.77;11.33;;;;;;;1.63;60.52;97660.51;1820100;77;21086;-72
2021/03/21 12:12:35;;;;;;;59.93;24.00;;;;;;;1.61;59.60;97646.55;1852983;77;21185;-72
2021/03/21 12:15:24;;;;;;;62.38;22.85;;;;;;;1.68;59.41;97654.74;1852868;77;21063;-73
2021/03/21 12:18:16;;;;;;;18.98;10.75;;;;;;;1.60;59.11;97654.27;1850422;77;21079;-72
2021/03/21 12:20:59;;;;;;;32.08;12.53;;;;;;;1.49;58.54;97653.75;1851905;77;20996;-71